Time;durP1;ratioP1;P1;durP2;ratioP2;P2;SDS_P1;SDS_P2;PMS_P1;PMS_P2;Temp;Humidity;BMP_temperature;BMP_pressure;BME280_temperature;BME280_humidity;BME280_pressure;Samples;Min_cycle;Max_cycle;Signal;HPM_P1;HPM_P2
2023/05/19 00:02:26;;;;;;;1.90;0.93;;;13.10;99.90;;;;;;5041724;28;20376;-60
2023/05/19 00:04:54;;;;;;;3.15;1.05;;;13.10;99.90;;;;;;5046088;28;20386;-59
2023/05/19 00:07:29;;;;;;;3.00;0.75;;;13.20;99.90;;;;;;5050025;28;20032;-60
2023/05/19 00:09:56;;;;;;;2.30;0.60;;;13.30;99.90;;;;;;5042940;28;20025;-60
2023/05/19 00:12:25;;;;;;;5.03;0.98;;;13.40;99.90;;;;;;5043652;28;20029;-59
2023/05/19 00:14:52;;;;;;;0.60;0.40;;;13.50;99.90;;;;;;5036674;28;20049;-62
2023/05/19 00:17:20;;;;;;;2.15;0.90;;;13.60;99.90;;;;;;5036895;28;20037;-61
2023/05/19 00:19:48;;;;;;;3.97;0.80;;;13.70;99.90;;;;;;5037766;28;20059;-62
2023/05/19 00:22:16;;;;;;;7.65;1.52;;;13.80;99.90;;;;;;5038720;28;20032;-62
2023/05/19 00:24:43;;;;;;;6.43;0.85;;;13.90;99.90;;;;;;5031669;28;20491;-61
2023/05/19 00:27:11;;;;;;;2.67;0.90;;;14.00;99.90;;;;;;5033097;28;20478;-62
2023/05/19 00:29:38;;;;;;;1.58;0.40;;;14.00;99.90;;;;;;5041466;28;20028;-62
2023/05/19 00:32:06;;;;;;;1.23;0.57;;;14.20;99.90;;;;;;5042969;28;20029;-62
2023/05/19 00:34:33;;;;;;;7.78;1.77;;;14.20;99.90;;;;;;5038676;28;20030;-62
2023/05/19 00:37:01;;;;;;;2.15;0.60;;;14.30;99.90;;;;;;5030786;28;20076;-62
2023/05/19 00:39:28;;;;;;;1.20;0.52;;;14.40;99.90;;;;;;5037671;28;20402;-62
2023/05/19 00:41:56;;;;;;;3.45;1.30;;;14.50;99.90;;;;;;5042424;28;20063;-63
2023/05/19 00:44:23;;;;;;;2.05;0.82;;;14.60;99.90;;;;;;5026947;28;20159;-62
2023/05/19 00:46:50;;;;;;;4.35;0.65;;;14.70;99.90;;;;;;5042643;28;20107;-62
2023/05/19 00:49:18;;;;;;;4.45;0.85;;;14.80;99.90;;;;;;5044030;28;20783;-63
2023/05/19 00:51:46;;;;;;;4.30;1.27;;;14.80;99.90;;;;;;5040861;28;20044;-63
2023/05/19 00:54:13;;;;;;;3.92;0.60;;;14.90;99.90;;;;;;5039735;28;20691;-62
2023/05/19 00:56:41;;;;;;;2.33;0.70;;;14.90;99.90;;;;;;5037023;28;20025;-63
2023/05/19 00:59:09;;;;;;;1.17;0.50;;;15.00;99.90;;;;;;5036266;28;20128;-63
2023/05/19 01:01:36;;;;;;;0.82;0.50;;;15.10;99.90;;;;;;5047559;28;20071;-63
2023/05/19 01:04:04;;;;;;;1.30;0.60;;;15.20;99.90;;;;;;5039876;28;20477;-63
2023/05/19 01:06:31;;;;;;;1.20;0.52;;;15.20;99.90;;;;;;5028150;28;20494;-62
2023/05/19 01:08:59;;;;;;;3.13;1.33;;;15.30;99.90;;;;;;5031150;28;20071;-62
2023/05/19 01:11:26;;;;;;;1.13;0.60;;;15.30;99.70;;;;;;5046174;28;20048;-63
2023/05/19 01:13:54;;;;;;;2.55;0.50;;;15.30;99.90;;;;;;5041210;28;20108;-64
2023/05/19 01:16:55;;;;;;;1.42;0.73;;;15.30;99.90;;;;;;5047103;28;20043;-63
2023/05/19 01:19:35;;;;;;;3.55;0.70;;;15.30;97.50;;;;;;5041017;28;20025;-63
2023/05/19 01:22:41;;;;;;;1.92;0.60;;;15.30;98.70;;;;;;5044184;28;20029;-63
2023/05/19 01:25:44;;;;;;;1.35;0.60;;;15.40;98.70;;;;;;5047087;28;20036;-63
2023/05/19 01:28:21;;;;;;;1.05;0.40;;;15.50;99.20;;;;;;4961782;28;20034;-63
2023/05/19 01:30:54;;;;;;;0.82;0.40;;;15.50;96.90;;;;;;5033614;28;20041;-63
2023/05/19 01:33:23;;;;;;;3.30;0.70;;;15.50;96.70;;;;;;5039746;28;20021;-63
2023/05/19 01:35:52;;;;;;;2.05;0.50;;;15.60;97.10;;;;;;5034594;28;20095;-62
2023/05/19 01:38:21;;;;;;;1.67;0.52;;;15.70;95.50;;;;;;5040328;28;20025;-62
2023/05/19 01:40:51;;;;;;;1.95;0.70;;;15.70;94.00;;;;;;5044120;28;20060;-63
2023/05/19 01:43:21;;;;;;;0.85;0.52;;;15.80;94.00;;;;;;5042509;28;20064;-62
2023/05/19 01:45:50;;;;;;;1.63;0.50;;;15.80;95.20;;;;;;5040426;28;20497;-63
2023/05/19 01:48:18;;;;;;;1.77;0.52;;;15.90;94.20;;;;;;5024900;28;20025;-63
2023/05/19 01:50:46;;;;;;;5.03;0.55;;;16.00;90.40;;;;;;5044550;28;20037;-65
2023/05/19 01:53:14;;;;;;;2.58;0.50;;;16.10;91.50;;;;;;5041055;28;20206;-63
2023/05/19 01:55:48;;;;;;;5.43;2.05;;;16.10;90.90;;;;;;5034848;28;20029;-63
2023/05/19 01:58:31;;;;;;;2.47;0.70;;;16.20;88.50;;;;;;5043344;28;20029;-63
2023/05/19 02:01:01;;;;;;;4.00;0.70;;;16.20;86.40;;;;;;5036957;28;20033;-63
2023/05/19 02:03:34;;;;;;;2.05;0.88;;;16.30;87.20;;;;;;5038673;28;20044;-64
2023/05/19 02:06:38;;;;;;;1.55;0.65;;;16.30;83.80;;;;;;5038514;28;20132;-63
2023/05/19 02:09:24;;;;;;;5.40;1.33;;;16.40;85.10;;;;;;5012873;28;20454;-63
2023/05/19 02:12:16;;;;;;;4.75;0.73;;;16.40;80.50;;;;;;5029637;28;20025;-64
2023/05/19 02:15:10;;;;;;;6.75;0.80;;;16.50;80.60;;;;;;5031959;28;20056;-63
2023/05/19 02:17:43;;;;;;;2.70;0.73;;;16.70;87.40;;;;;;5034615;28;20440;-64
2023/05/19 02:20:11;;;;;;;1.17;0.60;;;16.80;81.70;;;;;;5034505;28;20017;-63
2023/05/19 02:22:38;;;;;;;0.90;0.50;;;16.90;80.10;;;;;;5035768;28;20514;-63
2023/05/19 02:25:06;;;;;;;1.58;0.40;;;16.90;82.90;;;;;;5021348;28;20067;-64
2023/05/19 02:27:37;;;;;;;1.17;0.50;;;17.00;79.90;;;;;;5041488;28;20029;-64
2023/05/19 02:30:06;;;;;;;1.63;0.60;;;17.00;79.90;;;;;;5042608;28;20040;-63
2023/05/19 02:32:33;;;;;;;1.38;0.60;;;17.10;79.70;;;;;;5041040;28;20206;-63
2023/05/19 02:35:01;;;;;;;1.33;0.70;;;17.10;76.50;;;;;;5040826;28;20037;-63
2023/05/19 02:37:29;;;;;;;1.65;0.45;;;17.00;81.40;;;;;;5043183;28;20032;-63
2023/05/19 02:39:57;;;;;;;1.08;0.60;;;17.20;79.20;;;;;;5047113;28;20111;-63
2023/05/19 02:42:24;;;;;;;0.90;0.50;;;17.30;80.00;;;;;;5047030;28;20022;-64
2023/05/19 02:44:54;;;;;;;1.10;0.60;;;17.40;80.70;;;;;;5039293;28;20401;-64
2023/05/19 02:47:21;;;;;;;1.20;0.45;;;17.40;74.60;;;;;;5047782;28;20100;-63
2023/05/19 02:49:48;;;;;;;1.25;0.50;;;17.40;77.90;;;;;;5027081;28;20053;-64
2023/05/19 02:52:16;;;;;;;0.63;0.40;;;17.50;78.00;;;;;;5030449;28;20485;-64
2023/05/19 02:54:44;;;;;;;2.28;0.70;;;17.60;78.00;;;;;;5057074;28;20037;-63
2023/05/19 02:57:11;;;;;;;3.38;0.47;;;17.60;74.20;;;;;;5046919;28;20148;-61
2023/05/19 02:59:38;;;;;;;3.00;0.50;;;17.70;78.70;;;;;;5050256;28;20386;-61
2023/05/19 03:02:06;;;;;;;2.17;0.47;;;17.80;74.70;;;;;;5050783;28;20501;-62
2023/05/19 03:04:40;;;;;;;1.48;0.60;;;17.70;76.60;;;;;;5033668;28;20079;-62
2023/05/19 03:07:09;;;;;;;1.50;0.47;;;17.70;74.80;;;;;;5031947;28;20021;-59
2023/05/19 03:09:37;;;;;;;1.42;0.50;;;17.60;77.20;;;;;;5043131;28;20163;-58
2023/05/19 03:12:06;;;;;;;2.25;0.43;;;17.60;74.40;;;;;;5026684;28;20033;-58
2023/05/19 03:14:36;;;;;;;0.82;0.40;;;17.60;70.10;;;;;;5047528;28;20038;-58
2023/05/19 03:17:07;;;;;;;0.63;0.35;;;17.70;72.70;;;;;;5034496;28;20043;-59
2023/05/19 03:19:34;;;;;;;1.23;0.50;;;17.70;74.20;;;;;;5039211;28;20075;-58
2023/05/19 03:22:02;;;;;;;1.83;0.55;;;17.80;75.00;;;;;;5041901;28;20025;-61
2023/05/19 03:24:29;;;;;;;1.67;0.55;;;17.80;75.90;;;;;;5039178;28;20022;-59
2023/05/19 03:26:56;;;;;;;0.85;0.47;;;17.80;75.00;;;;;;5039343;28;20037;-60
2023/05/19 03:29:24;;;;;;;0.70;0.55;;;17.90;75.50;;;;;;5042974;28;20116;-63
2023/05/19 03:31:51;;;;;;;1.33;0.60;;;17.90;75.40;;;;;;5043365;28;20025;-59
2023/05/19 03:34:21;;;;;;;0.93;0.52;;;18.00;75.70;;;;;;5044634;28;20450;-59
2023/05/19 03:36:49;;;;;;;0.50;0.30;;;18.00;74.90;;;;;;5045961;28;20032;-59
2023/05/19 03:39:16;;;;;;;2.42;0.50;;;17.90;72.50;;;;;;5046806;28;20018;-59
2023/05/19 03:41:44;;;;;;;2.47;0.50;;;17.90;74.70;;;;;;5040935;28;20955;-59
2023/05/19 03:44:11;;;;;;;0.68;0.50;;;17.90;74.70;;;;;;5039811;28;20030;-59
2023/05/19 03:46:39;;;;;;;1.30;0.68;;;18.00;72.70;;;;;;5045723;28;20362;-59
2023/05/19 03:49:06;;;;;;;1.58;0.35;;;18.00;74.60;;;;;;5037863;28;20046;-60
2023/05/19 03:51:35;;;;;;;2.08;0.50;;;18.00;73.00;;;;;;5042010;28;20035;-59
2023/05/19 03:54:03;;;;;;;1.35;0.50;;;18.00;70.20;;;;;;5042243;28;20029;-59
2023/05/19 03:56:31;;;;;;;1.10;0.52;;;17.90;71.40;;;;;;5045513;28;20120;-59
2023/05/19 03:58:59;;;;;;;1.30;0.75;;;17.90;72.80;;;;;;5038980;28;20025;-59
2023/05/19 04:01:26;;;;;;;3.53;0.60;;;17.90;73.90;;;;;;5049469;28;20021;-60
2023/05/19 04:03:54;;;;;;;1.45;0.50;;;17.90;73.30;;;;;;5043151;28;20082;-61
2023/05/19 04:06:22;;;;;;;0.68;0.50;;;17.80;71.90;;;;;;5038931;28;20409;-59
2023/05/19 04:08:49;;;;;;;2.58;0.70;;;17.80;73.30;;;;;;5044117;28;20025;-60
2023/05/19 04:11:18;;;;;;;1.90;0.43;;;17.80;74.50;;;;;;5047451;28;20112;-59
2023/05/19 04:13:46;;;;;;;2.10;0.70;;;17.80;73.40;;;;;;5037091;28;20108;-59
2023/05/19 04:16:14;;;;;;;1.15;0.55;;;17.90;74.70;;;;;;5045131;28;20128;-59
2023/05/19 04:18:44;;;;;;;2.83;0.60;;;18.00;73.00;;;;;;5041659;28;20032;-59
2023/05/19 04:21:11;;;;;;;1.30;0.50;;;17.90;73.40;;;;;;5048806;28;20029;-59
2023/05/19 04:23:39;;;;;;;2.22;0.65;;;17.90;70.80;;;;;;5045212;28;20029;-59
2023/05/19 04:26:06;;;;;;;2.40;0.82;;;17.90;73.00;;;;;;5044445;28;20457;-59
2023/05/19 04:28:37;;;;;;;0.93;0.50;;;17.90;72.30;;;;;;5048010;28;20425;-59
2023/05/19 04:31:09;;;;;;;3.88;1.13;;;17.90;73.50;;;;;;5046699;28;20079;-59
2023/05/19 04:33:40;;;;;;;1.65;0.60;;;17.90;72.00;;;;;;5041462;28;20436;-55
2023/05/19 04:36:10;;;;;;;1.10;0.68;;;17.90;74.50;;;;;;5041928;28;20037;-54
2023/05/19 04:38:39;;;;;;;0.95;0.50;;;17.80;70.90;;;;;;5037696;28;20020;-60
2023/05/19 04:41:09;;;;;;;1.55;0.70;;;17.80;72.50;;;;;;5040931;28;20083;-61
2023/05/19 04:43:43;;;;;;;1.67;0.73;;;17.70;73.10;;;;;;5035118;28;20101;-60
2023/05/19 04:46:14;;;;;;;1.80;0.83;;;17.60;71.20;;;;;;5032226;28;20022;-60
2023/05/19 04:48:42;;;;;;;1.33;0.75;;;17.50;73.30;;;;;;5045664;28;20060;-60
2023/05/19 04:51:12;;;;;;;4.50;0.90;;;17.40;72.90;;;;;;5041078;28;20406;-60
2023/05/19 04:53:41;;;;;;;1.17;0.70;;;17.40;72.80;;;;;;5015114;28;20030;-60
2023/05/19 04:56:13;;;;;;;2.80;0.70;;;17.40;75.70;;;;;;5044974;28;20064;-60
2023/05/19 04:58:43;;;;;;;1.58;0.90;;;17.40;75.80;;;;;;5027874;28;20108;-60
2023/05/19 05:01:12;;;;;;;2.20;0.47;;;17.40;75.20;;;;;;5036763;28;20560;-60
2023/05/19 05:03:40;;;;;;;0.90;0.60;;;17.30;75.20;;;;;;5038970;28;20483;-60
2023/05/19 05:06:07;;;;;;;1.05;0.52;;;17.40;74.40;;;;;;5040975;28;20411;-60
2023/05/19 05:08:38;;;;;;;2.45;0.70;;;17.30;74.20;;;;;;5039563;28;20021;-59
2023/05/19 05:11:06;;;;;;;1.92;0.80;;;17.30;75.20;;;;;;5039193;28;20372;-60
2023/05/19 05:13:34;;;;;;;1.42;0.57;;;17.20;74.70;;;;;;5045479;28;20044;-60
2023/05/19 05:16:05;;;;;;;2.38;0.90;;;17.10;75.00;;;;;;5024569;28;20040;-60
2023/05/19 05:18:34;;;;;;;2.08;0.75;;;17.10;76.50;;;;;;5043573;28;20022;-60
2023/05/19 05:21:02;;;;;;;1.27;0.50;;;17.00;74.90;;;;;;5040612;28;20048;-60
2023/05/19 05:23:30;;;;;;;1.45;1.00;;;16.90;78.00;;;;;;5044484;28;20047;-60
2023/05/19 05:25:58;;;;;;;0.85;0.52;;;16.90;78.60;;;;;;5026537;28;20032;-60
2023/05/19 05:28:25;;;;;;;4.30;0.70;;;16.90;79.50;;;;;;5035168;28;20398;-60
2023/05/19 05:30:55;;;;;;;2.20;0.63;;;16.80;78.40;;;;;;5025165;28;20029;-60
2023/05/19 05:33:23;;;;;;;1.35;0.60;;;16.70;77.20;;;;;;5026354;28;20060;-60
2023/05/19 05:35:50;;;;;;;1.60;0.60;;;16.70;77.60;;;;;;5025874;28;20095;-60
2023/05/19 05:38:18;;;;;;;1.88;0.90;;;16.60;78.50;;;;;;5043398;28;20044;-60
2023/05/19 05:40:45;;;;;;;3.80;1.10;;;16.50;81.20;;;;;;5037329;28;20029;-60
2023/05/19 05:43:13;;;;;;;1.55;0.50;;;16.50;81.90;;;;;;5043142;28;20021;-60
2023/05/19 05:45:40;;;;;;;0.80;0.63;;;16.40;81.50;;;;;;5041856;28;20021;-60
2023/05/19 05:48:08;;;;;;;1.85;0.82;;;16.30;79.60;;;;;;5036932;28;20021;-60
2023/05/19 05:50:36;;;;;;;1.70;0.68;;;16.40;79.60;;;;;;5045260;28;20039;-60
2023/05/19 05:53:06;;;;;;;1.20;0.52;;;16.30;80.70;;;;;;5023783;28;20029;-60
2023/05/19 05:55:37;;;;;;;1.98;1.10;;;16.30;80.20;;;;;;5047705;28;20045;-60
2023/05/19 05:58:04;;;;;;;7.05;1.17;;;16.30;81.30;;;;;;5027963;28;20452;-60
2023/05/19 06:00:32;;;;;;;1.23;0.60;;;16.20;83.00;;;;;;5034847;28;20029;-59
2023/05/19 06:02:59;;;;;;;2.92;0.90;;;16.10;84.10;;;;;;5042340;28;20049;-60
2023/05/19 06:05:26;;;;;;;3.13;0.90;;;16.00;87.00;;;;;;5043801;28;20435;-60
2023/05/19 06:07:54;;;;;;;1.98;0.60;;;16.00;89.80;;;;;;5045096;28;20025;-63
2023/05/19 06:10:22;;;;;;;1.45;0.63;;;16.00;90.50;;;;;;5043581;28;20108;-59
2023/05/19 06:12:49;;;;;;;2.28;0.52;;;16.00;90.70;;;;;;5029584;28;20025;-59
2023/05/19 06:15:17;;;;;;;4.60;0.75;;;15.80;91.60;;;;;;5040656;28;20030;-60
2023/05/19 06:17:44;;;;;;;3.80;1.02;;;15.70;92.40;;;;;;5032328;28;20568;-57
2023/05/19 06:20:12;;;;;;;5.68;1.05;;;15.70;93.80;;;;;;5043302;28;20075;-56
2023/05/19 06:22:40;;;;;;;3.72;1.20;;;15.60;94.20;;;;;;5043980;28;20592;-61
2023/05/19 06:25:08;;;;;;;3.35;0.88;;;15.40;95.50;;;;;;5045268;28;20025;-61
2023/05/19 06:27:36;;;;;;;3.45;0.80;;;15.30;96.90;;;;;;5044924;28;20530;-62
2023/05/19 06:30:04;;;;;;;2.17;0.80;;;15.20;97.40;;;;;;5042610;28;20079;-62
2023/05/19 06:32:31;;;;;;;3.72;1.25;;;15.00;98.60;;;;;;5047807;28;20059;-61
2023/05/19 06:34:59;;;;;;;3.13;1.02;;;14.90;99.90;;;;;;5034743;28;20091;-61
2023/05/19 06:37:26;;;;;;;1.60;0.85;;;14.80;99.90;;;;;;5041562;28;20037;-61
2023/05/19 06:39:54;;;;;;;1.58;0.80;;;14.60;99.90;;;;;;5033365;28;20076;-63
2023/05/19 06:42:22;;;;;;;1.85;1.00;;;14.40;99.90;;;;;;5041847;28;20032;-61
2023/05/19 06:44:51;;;;;;;3.25;1.00;;;14.30;99.90;;;;;;5037567;28;20040;-62
2023/05/19 06:47:19;;;;;;;1.55;1.35;;;14.10;99.90;;;;;;5019167;28;20487;-62
2023/05/19 06:49:53;;;;;;;3.63;1.13;;;14.00;99.90;;;;;;5036640;28;20047;-62
2023/05/19 06:52:22;;;;;;;4.93;1.42;;;13.80;99.90;;;;;;5048062;28;20017;-62
2023/05/19 06:54:50;;;;;;;3.25;1.10;;;13.60;99.90;;;;;;5026096;28;20045;-62
2023/05/19 06:57:17;;;;;;;4.78;1.48;;;13.50;99.90;;;;;;5040297;28;20021;-63
2023/05/19 06:59:45;;;;;;;4.35;1.90;;;13.30;99.90;;;;;;5027990;28;20024;-62
2023/05/19 07:02:13;;;;;;;2.65;1.27;;;13.20;99.90;;;;;;5015655;28;20034;-62
2023/05/19 07:04:41;;;;;;;5.47;1.90;;;13.00;99.90;;;;;;5023766;28;20021;-62
2023/05/19 07:07:09;;;;;;;3.42;1.42;;;12.90;99.90;;;;;;5033306;28;20443;-62
2023/05/19 07:09:36;;;;;;;3.42;1.67;;;12.70;99.90;;;;;;5038297;28;20025;-61
2023/05/19 07:12:04;;;;;;;4.00;1.40;;;12.60;99.90;;;;;;5025478;28;20024;-61
2023/05/19 07:14:32;;;;;;;2.65;1.48;;;12.40;99.90;;;;;;5035119;28;20021;-61
2023/05/19 07:16:59;;;;;;;3.28;1.50;;;12.30;99.90;;;;;;5039295;28;20025;-62
2023/05/19 07:19:27;;;;;;;6.13;1.67;;;12.10;99.90;;;;;;5047114;28;20037;-56
2023/05/19 07:21:55;;;;;;;5.43;2.75;;;12.00;99.90;;;;;;5044125;28;20032;-62
2023/05/19 07:24:23;;;;;;;5.30;2.47;;;11.80;99.90;;;;;;5047570;28;20103;-60
2023/05/19 07:26:51;;;;;;;5.78;3.03;;;11.70;99.90;;;;;;5043169;28;20021;-60
2023/05/19 07:29:18;;;;;;;5.22;2.92;;;11.50;99.90;;;;;;5042959;28;20097;-60
2023/05/19 07:31:46;;;;;;;8.35;3.05;;;11.40;99.90;;;;;;5037586;28;20041;-60
2023/05/19 07:34:13;;;;;;;3.88;1.88;;;11.30;99.90;;;;;;5044502;28;20036;-61
2023/05/19 07:36:40;;;;;;;3.95;1.88;;;11.10;99.90;;;;;;5041174;28;20057;-58
2023/05/19 07:39:08;;;;;;;7.75;2.13;;;11.00;99.90;;;;;;5036397;28;20052;-58
2023/05/19 07:41:35;;;;;;;3.28;1.65;;;10.90;99.90;;;;;;5052478;28;20036;-59
2023/05/19 07:44:06;;;;;;;2.25;1.50;;;10.80;99.90;;;;;;5039481;28;20136;-59
2023/05/19 07:46:34;;;;;;;6.20;1.73;;;10.80;99.90;;;;;;5039059;28;20029;-59
2023/05/19 07:49:02;;;;;;;4.75;1.92;;;10.70;99.90;;;;;;5039384;28;20050;-59
2023/05/19 07:51:30;;;;;;;3.28;1.85;;;10.60;99.90;;;;;;5037167;28;20036;-61
2023/05/19 07:53:58;;;;;;;6.03;1.73;;;10.60;99.90;;;;;;5036209;28;20021;-59
2023/05/19 07:56:26;;;;;;;3.38;2.00;;;10.60;99.90;;;;;;5046817;28;20038;-60
2023/05/19 07:58:53;;;;;;;4.28;2.17;;;10.60;99.90;;;;;;5049282;28;20482;-60
2023/05/19 08:01:21;;;;;;;4.90;1.85;;;10.50;99.90;;;;;;5048942;28;20029;-59
2023/05/19 08:03:48;;;;;;;4.38;2.28;;;10.40;99.90;;;;;;5040481;28;20025;-60
2023/05/19 08:06:16;;;;;;;3.25;1.63;;;10.30;99.90;;;;;;5039384;28;20057;-59
2023/05/19 08:08:43;;;;;;;7.93;2.50;;;10.20;99.90;;;;;;5038906;28;20096;-59
2023/05/19 08:11:10;;;;;;;7.30;3.42;;;10.10;99.90;;;;;;5047638;28;20021;-60
2023/05/19 08:13:38;;;;;;;6.45;2.35;;;10.10;99.90;;;;;;5045190;28;20025;-60
2023/05/19 08:16:06;;;;;;;5.22;2.55;;;10.00;99.90;;;;;;5046005;28;20047;-59
2023/05/19 08:18:33;;;;;;;5.63;3.08;;;10.00;99.90;;;;;;5045296;28;20159;-59
2023/05/19 08:21:01;;;;;;;7.15;2.70;;;9.90;99.90;;;;;;5045660;28;20126;-59
2023/05/19 08:23:28;;;;;;;4.47;2.83;;;9.90;99.90;;;;;;5039902;28;20031;-60
2023/05/19 08:25:56;;;;;;;4.00;2.33;;;9.90;99.90;;;;;;5045938;28;20170;-59
2023/05/19 08:28:23;;;;;;;6.80;3.10;;;9.80;99.90;;;;;;5048488;28;20029;-62
2023/05/19 08:30:51;;;;;;;7.50;2.90;;;9.80;99.90;;;;;;5046414;28;20486;-59
2023/05/19 08:33:20;;;;;;;4.10;2.40;;;9.90;99.90;;;;;;5039355;28;20025;-59
2023/05/19 08:35:48;;;;;;;7.70;2.83;;;10.10;99.90;;;;;;5042375;28;20036;-59
2023/05/19 08:38:15;;;;;;;7.03;2.30;;;10.50;99.90;;;;;;5047286;28;20029;-60
2023/05/19 08:40:46;;;;;;;4.50;2.28;;;10.70;99.90;;;;;;5042536;28;20033;-59
2023/05/19 08:43:13;;;;;;;5.75;2.00;;;10.70;99.90;;;;;;5040650;28;20529;-60
2023/05/19 08:45:47;;;;;;;7.05;2.85;;;11.10;99.90;;;;;;5043477;28;20390;-60
2023/05/19 08:48:18;;;;;;;10.18;4.43;;;11.30;99.90;;;;;;5037405;28;20044;-59
2023/05/19 08:51:08;;;;;;;8.55;3.72;;;11.30;99.90;;;;;;5040864;28;20029;-60
2023/05/19 08:53:44;;;;;;;8.23;3.80;;;11.30;99.90;;;;;;5033057;28;20112;-60
2023/05/19 08:56:31;;;;;;;6.18;2.35;;;11.30;99.90;;;;;;5041998;28;20048;-59
2023/05/19 08:58:59;;;;;;;8.63;1.77;;;11.30;99.90;;;;;;5014867;28;20017;-59
2023/05/19 09:01:29;;;;;;;6.13;1.70;;;11.20;99.90;;;;;;5019362;28;20032;-59
2023/05/19 09:03:56;;;;;;;7.47;1.60;;;11.20;99.90;;;;;;5035029;28;20029;-60
2023/05/19 09:06:24;;;;;;;2.90;1.60;;;11.10;99.90;;;;;;5038437;28;20033;-63
2023/05/19 09:08:52;;;;;;;2.42;1.38;;;10.90;99.90;;;;;;5041007;28;20056;-61
2023/05/19 09:11:21;;;;;;;7.78;1.92;;;10.90;99.90;;;;;;5035112;28;20025;-59
2023/05/19 09:13:49;;;;;;;3.83;1.33;;;10.80;99.90;;;;;;5043543;28;20040;-60
2023/05/19 09:16:16;;;;;;;4.63;1.40;;;10.70;99.90;;;;;;5038063;28;20040;-59
2023/05/19 09:18:57;;;;;;;7.45;2.05;;;10.50;99.90;;;;;;5042471;28;20021;-59
2023/05/19 09:21:31;;;;;;;5.60;1.80;;;10.50;99.90;;;;;;5044024;28;20444;-59
2023/05/19 09:24:06;;;;;;;5.28;2.08;;;10.50;99.90;;;;;;5031235;28;20071;-60
2023/05/19 09:26:42;;;;;;;6.25;1.65;;;10.50;99.90;;;;;;5032551;28;20107;-59
2023/05/19 09:29:14;;;;;;;2.95;1.15;;;10.50;99.90;;;;;;5039024;28;20035;-60
2023/05/19 09:32:03;;;;;;;6.18;1.55;;;10.40;99.90;;;;;;5037488;28;20025;-57
2023/05/19 09:34:30;;;;;;;3.83;1.75;;;10.30;99.90;;;;;;5040421;28;20037;-59
2023/05/19 09:36:58;;;;;;;7.88;1.75;;;10.40;99.90;;;;;;5036559;28;20084;-59
2023/05/19 09:39:27;;;;;;;5.88;1.50;;;10.30;99.90;;;;;;5038851;28;20029;-59
2023/05/19 09:41:57;;;;;;;3.13;1.60;;;10.30;99.90;;;;;;5037762;28;20033;-60
2023/05/19 09:44:29;;;;;;;5.60;3.05;;;10.30;99.90;;;;;;5035010;28;20031;-60
2023/05/19 09:46:57;;;;;;;5.47;2.35;;;10.30;99.90;;;;;;5036073;28;20393;-59
2023/05/19 09:49:31;;;;;;;6.03;2.10;;;10.20;99.90;;;;;;5038794;28;20067;-59
2023/05/19 09:52:02;;;;;;;5.90;2.23;;;10.20;99.90;;;;;;5020959;28;20393;-60
2023/05/19 09:54:31;;;;;;;7.28;2.25;;;10.10;99.90;;;;;;5035440;28;20017;-60
2023/05/19 09:57:03;;;;;;;6.95;2.17;;;10.00;99.90;;;;;;5032150;28;20421;-59
2023/05/19 09:59:31;;;;;;;6.28;2.75;;;9.90;99.90;;;;;;5037986;28;20053;-59
2023/05/19 10:02:00;;;;;;;6.60;2.53;;;9.70;99.90;;;;;;5036668;28;20029;-60
2023/05/19 10:04:29;;;;;;;6.75;2.42;;;9.60;99.90;;;;;;5040523;28;20627;-59
2023/05/19 10:07:04;;;;;;;7.65;2.75;;;9.50;99.90;;;;;;5042529;28;20043;-60
2023/05/19 10:09:33;;;;;;;9.15;2.90;;;9.30;99.90;;;;;;5039979;28;20029;-60
2023/05/19 10:12:01;;;;;;;9.52;3.03;;;9.20;99.90;;;;;;5032614;28;20025;-59
2023/05/19 10:14:29;;;;;;;7.13;2.83;;;9.00;99.90;;;;;;5033204;28;20871;-59
2023/05/19 10:16:58;;;;;;;10.60;2.88;;;8.90;99.90;;;;;;5036163;28;20315;-59
2023/05/19 10:19:27;;;;;;;6.72;3.25;;;8.80;99.90;;;;;;5039953;28;20025;-59
2023/05/19 10:21:55;;;;;;;11.80;3.03;;;8.80;99.90;;;;;;5032170;28;20057;-59
2023/05/19 10:24:23;;;;;;;8.75;3.33;;;8.70;99.90;;;;;;5032031;28;20096;-60
2023/05/19 10:27:05;;;;;;;15.25;3.15;;;8.60;99.90;;;;;;5034039;28;20037;-59
2023/05/19 10:29:37;;;;;;;7.38;2.65;;;8.40;99.90;;;;;;5036707;28;20025;-59
2023/05/19 10:32:09;;;;;;;11.85;2.50;;;8.40;99.90;;;;;;5039352;28;20028;-60
2023/05/19 10:34:56;;;;;;;6.63;2.40;;;8.30;99.90;;;;;;5031966;28;20021;-58
2023/05/19 10:37:27;;;;;;;7.65;2.88;;;8.20;99.90;;;;;;5018930;28;20097;-59
2023/05/19 10:39:56;;;;;;;8.98;2.53;;;8.10;99.90;;;;;;5038209;28;20036;-59
2023/05/19 10:42:52;;;;;;;17.15;3.35;;;8.10;99.90;;;;;;5027473;28;20095;-60
2023/05/19 10:45:26;;;;;;;14.90;3.17;;;7.90;99.90;;;;;;5012420;28;20167;-59
2023/05/19 10:47:54;;;;;;;10.52;3.35;;;7.80;99.90;;;;;;5031303;28;20030;-63
2023/05/19 10:50:22;;;;;;;6.70;2.90;;;7.80;99.90;;;;;;5031123;28;20112;-60
2023/05/19 10:52:56;;;;;;;11.27;3.15;;;7.70;99.90;;;;;;5035047;28;20091;-59
2023/05/19 10:55:57;;;;;;;7.65;2.88;;;7.50;99.90;;;;;;5036507;28;20037;-65
2023/05/19 10:58:44;;;;;;;11.70;3.95;;;7.40;99.90;;;;;;5022449;28;20068;-59
2023/05/19 11:01:16;;;;;;;9.95;3.40;;;7.30;99.90;;;;;;5026664;28;20079;-60
2023/05/19 11:03:56;;;;;;;13.32;3.42;;;7.20;99.90;;;;;;5041466;28;20624;-60
2023/05/19 11:06:31;;;;;;;10.70;3.15;;;7.30;99.90;;;;;;5040743;28;20881;-61
2023/05/19 11:09:16;;;;;;;9.27;3.58;;;7.20;99.90;;;;;;5040075;28;20380;-59
2023/05/19 11:11:51;;;;;;;9.75;3.70;;;7.10;99.90;;;;;;5039267;28;20036;-60
2023/05/19 11:14:28;;;;;;;8.25;3.20;;;7.10;99.90;;;;;;5041616;28;20036;-60
2023/05/19 11:16:59;;;;;;;9.73;2.90;;;7.00;99.90;;;;;;5038669;28;20041;-51
2023/05/19 11:19:32;;;;;;;5.30;2.65;;;6.80;99.90;;;;;;5040363;28;20078;-60
2023/05/19 11:22:10;;;;;;;15.68;3.85;;;6.70;99.90;;;;;;5035101;28;20045;-60
2023/05/19 11:24:46;;;;;;;9.20;3.60;;;6.60;99.90;;;;;;5016237;28;20052;-60
2023/05/19 11:27:27;;;;;;;8.95;3.80;;;6.60;99.90;;;;;;5042699;28;20609;-59
2023/05/19 11:30:10;;;;;;;9.95;3.13;;;6.50;99.90;;;;;;5041002;28;20029;-60
2023/05/19 11:32:38;;;;;;;7.47;3.75;;;6.50;99.90;;;;;;5032299;28;20082;-60
2023/05/19 11:35:06;;;;;;;9.93;4.05;;;6.40;99.90;;;;;;5037590;28;20072;-60
2023/05/19 11:37:34;;;;;;;10.30;4.63;;;6.30;99.90;;;;;;5026492;28;20060;-61
2023/05/19 11:40:06;;;;;;;10.88;5.45;;;6.30;99.90;;;;;;5038697;28;20033;-60
2023/05/19 11:42:34;;;;;;;8.05;4.35;;;6.20;99.90;;;;;;5022606;28;20033;-59
2023/05/19 11:45:03;;;;;;;11.52;5.68;;;6.20;99.90;;;;;;5017176;28;20060;-60
2023/05/19 11:47:32;;;;;;;12.27;4.63;;;6.20;99.90;;;;;;5036613;28;20098;-60
2023/05/19 11:50:00;;;;;;;12.02;6.30;;;6.20;99.90;;;;;;5040142;28;20520;-60
2023/05/19 11:52:28;;;;;;;11.80;6.25;;;6.10;99.90;;;;;;5039837;28;20017;-60
2023/05/19 11:54:59;;;;;;;21.85;7.38;;;6.10;99.90;;;;;;5036483;28;20156;-59
2023/05/19 11:57:27;;;;;;;16.13;7.43;;;6.00;99.90;;;;;;5038012;28;20036;-60
2023/05/19 11:59:55;;;;;;;19.13;7.15;;;5.80;99.90;;;;;;5030601;28;20133;-60
2023/05/19 12:02:24;;;;;;;17.23;7.18;;;5.90;99.90;;;;;;5040297;28;20017;-59
2023/05/19 12:04:53;;;;;;;13.73;6.60;;;5.90;99.90;;;;;;5037265;28;20042;-59
2023/05/19 12:07:24;;;;;;;19.65;7.32;;;5.80;99.90;;;;;;5035810;28;20048;-59
2023/05/19 12:09:54;;;;;;;13.02;5.97;;;5.80;99.90;;;;;;5041837;28;20033;-59
2023/05/19 12:12:22;;;;;;;11.02;6.30;;;5.80;99.90;;;;;;5038985;28;20029;-59
2023/05/19 12:14:53;;;;;;;11.85;6.65;;;5.80;99.90;;;;;;5041897;28;20029;-59
2023/05/19 12:17:24;;;;;;;17.10;6.38;;;5.80;99.90;;;;;;5045287;28;20029;-61
2023/05/19 12:19:52;;;;;;;12.18;5.90;;;5.80;99.90;;;;;;5041601;28;20678;-59
2023/05/19 12:22:19;;;;;;;10.50;4.82;;;5.70;99.90;;;;;;5045506;28;20488;-60
2023/05/19 12:24:47;;;;;;;11.10;5.45;;;5.70;99.90;;;;;;5040702;28;20017;-60
2023/05/19 12:27:20;;;;;;;13.35;6.50;;;5.70;99.90;;;;;;5041444;28;20628;-59
2023/05/19 12:29:51;;;;;;;12.07;5.75;;;5.70;99.90;;;;;;5040303;28;20162;-59
2023/05/19 12:32:27;;;;;;;11.45;5.10;;;5.60;99.90;;;;;;5043725;28;20036;-59
2023/05/19 12:34:59;;;;;;;10.00;4.90;;;5.60;99.90;;;;;;5043114;28;20147;-59
2023/05/19 12:37:29;;;;;;;9.00;5.22;;;5.60;99.90;;;;;;5046026;28;20567;-60
2023/05/19 12:39:57;;;;;;;10.63;4.30;;;5.60;99.90;;;;;;5037127;28;20036;-60
2023/05/19 12:42:30;;;;;;;8.95;3.47;;;5.50;99.90;;;;;;5045825;28;20505;-60
2023/05/19 12:44:59;;;;;;;5.57;3.10;;;5.60;99.90;;;;;;5039450;28;20039;-59
2023/05/19 12:47:34;;;;;;;4.72;2.88;;;5.60;99.90;;;;;;5038946;28;20543;-60
2023/05/19 12:50:05;;;;;;;6.32;3.15;;;5.70;99.90;;;;;;5048032;28;20053;-59
2023/05/19 12:52:34;;;;;;;3.75;2.28;;;5.80;99.90;;;;;;5038647;28;20025;-59
2023/05/19 12:55:10;;;;;;;4.50;2.75;;;5.90;99.90;;;;;;5044937;28;20060;-59
2023/05/19 12:57:40;;;;;;;8.98;2.95;;;6.00;99.90;;;;;;5039140;28;20063;-59
2023/05/19 13:00:11;;;;;;;12.25;3.53;;;6.00;99.90;;;;;;5028408;28;20029;-59
2023/05/19 13:02:56;;;;;;;29.05;4.10;;;6.10;99.90;;;;;;5044063;28;20109;-58
2023/05/19 13:05:24;;;;;;;7.38;2.15;;;6.30;99.90;;;;;;5022462;28;20454;-59